createdAt,value
2023-03-23T15:59:01.163Z,95983.13
2023-03-23T16:01:05.955Z,95983.34
2023-03-23T16:03:12.429Z,95980.13
2023-03-23T16:05:14.324Z,95985.66
2023-03-23T16:07:16.565Z,95977.59
2023-03-23T16:09:20.546Z,95974.72
2023-03-23T16:11:23.062Z,95979.81
2023-03-23T16:13:24.741Z,95987.16
2023-03-23T16:15:26.558Z,95988.19
2023-03-23T16:17:28.128Z,95983.03
2023-03-23T16:19:29.626Z,95981.66
2023-03-23T16:21:31.463Z,95986.66
2023-03-23T16:23:32.952Z,95991.66
2023-03-23T16:25:34.413Z,95991.84
2023-03-23T16:27:36.147Z,95999.69
2023-03-23T16:29:59.941Z,96000.59
2023-03-23T16:31:59.876Z,96000.16
2023-03-23T16:34:01.438Z,96003.28
2023-03-23T16:36:03.627Z,95998.63
2023-03-23T16:38:08.309Z,96008.41
2023-03-23T16:40:12.947Z,95999.63
2023-03-23T16:42:14.429Z,95993.28
2023-03-23T16:44:16.570Z,96000.06
2023-03-23T16:46:18.133Z,95997.91
2023-03-23T16:48:19.885Z,95997.31
2023-03-23T16:50:21.951Z,96000.72
2023-03-23T16:52:23.869Z,96001.66
2023-03-23T16:54:25.455Z,95993.53
2023-03-23T16:56:27.018Z,95997.53
2023-03-23T16:58:28.668Z,95991.16
2023-03-23T17:00:30.426Z,95989.50
2023-03-23T17:02:32.765Z,95993.13
2023-03-23T17:04:34.531Z,95987.22
2023-03-23T17:06:36.049Z,95985.59
2023-03-23T17:08:38.431Z,95999.25
2023-03-23T17:10:42.189Z,95989.13
2023-03-23T17:12:44.260Z,95984.44
2023-03-23T17:14:45.930Z,95986.56
2023-03-23T17:16:47.812Z,95991.75
2023-03-23T17:18:49.304Z,95984.78
2023-03-23T17:20:52.939Z,95985.56
2023-03-23T17:22:54.604Z,95982.94
2023-03-23T17:24:57.267Z,95992.44
2023-03-23T17:26:58.806Z,95978.19
2023-03-23T17:29:00.457Z,95992.50
2023-03-23T17:31:01.992Z,95999.56
2023-03-23T17:33:03.680Z,95998.31
2023-03-23T17:35:06.778Z,95994.75
2023-03-23T17:37:10.722Z,96001.81
2023-03-23T17:39:12.419Z,95995.75
2023-03-23T17:41:14.881Z,96001.03
2023-03-23T17:43:16.296Z,96002.09
2023-03-23T17:45:17.986Z,96002.19
2023-03-23T17:47:25.352Z,95998.22
2023-03-23T17:49:27.784Z,96004.94
2023-03-23T17:51:29.269Z,95999.47
2023-03-23T17:53:34.892Z,96007.03
2023-03-23T17:55:36.613Z,96010.72
2023-03-23T17:57:38.864Z,96013.00
2023-03-23T17:59:40.378Z,96011.94
2023-03-23T18:01:41.864Z,96001.22
2023-03-23T18:03:54.411Z,96001.66
2023-03-23T18:06:03.347Z,96007.75
2023-03-23T18:08:09.449Z,96010.50
2023-03-23T18:10:15.295Z,96010.50
2023-03-23T18:12:17.552Z,96015.94
2023-03-23T18:14:19.767Z,96005.34
2023-03-23T18:16:21.371Z,96008.47
2023-03-23T18:18:24.561Z,96009.25
2023-03-23T18:20:26.944Z,96010.66
2023-03-23T18:22:28.529Z,96015.19
2023-03-23T18:24:30.296Z,96021.28
2023-03-23T18:26:31.983Z,96024.84
2023-03-23T18:28:34.353Z,96011.19
2023-03-23T18:30:43.743Z,96018.22
2023-03-23T18:32:48.803Z,96013.88
2023-03-23T18:34:54.031Z,96013.63
2023-03-23T18:36:55.614Z,96004.75
2023-03-23T18:38:57.663Z,96015.06
2023-03-23T18:40:59.273Z,96023.19
2023-03-23T18:43:00.802Z,96017.41
2023-03-23T18:45:02.661Z,96015.91
2023-03-23T18:47:04.426Z,96020.03
2023-03-23T18:49:06.126Z,96021.41
2023-03-23T18:51:08.818Z,96023.19
2023-03-23T18:53:10.397Z,96016.00
2023-03-23T18:55:11.928Z,96017.09
2023-03-23T18:57:14.006Z,96015.97
2023-03-23T18:59:15.582Z,96020.84
2023-03-23T19:01:17.741Z,96010.03
2023-03-23T19:03:20.583Z,96013.91
2023-03-23T19:05:27.410Z,96012.63
2023-03-23T19:07:30.333Z,96007.03
2023-03-23T19:09:34.740Z,96013.00
2023-03-23T19:11:36.940Z,96010.66
2023-03-23T19:13:50.301Z,96007.53
2023-03-23T19:16:03.462Z,96009.31
2023-03-23T19:18:05.477Z,96009.97
2023-03-23T19:20:14.597Z,96010.38
2023-03-23T19:22:18.689Z,96007.41
2023-03-23T19:24:20.256Z,96009.44
2023-03-23T19:26:31.158Z,96004.00
2023-03-23T19:29:09.679Z,96001.72
2023-03-23T19:30:57.650Z,96006.91
2023-03-23T19:33:09.926Z,96001.19
2023-03-23T19:37:18.508Z,96000.72
2023-03-23T19:39:20.025Z,96005.91
2023-03-23T19:41:22.015Z,96001.13
2023-03-23T19:43:25.381Z,96004.94
2023-03-23T19:45:28.155Z,96007.84
2023-03-23T19:47:29.830Z,96005.38
2023-03-23T19:49:31.635Z,96005.75
2023-03-23T19:51:33.234Z,96009.97
2023-03-23T19:53:35.400Z,96015.50
2023-03-23T19:55:37.420Z,96007.47
2023-03-23T19:57:39.183Z,96010.59
2023-03-23T19:59:45.858Z,96003.66
2023-03-23T20:01:55.883Z,95998.41
2023-03-23T20:04:00.338Z,95993.63
2023-03-23T20:06:05.904Z,95994.63
2023-03-23T20:08:16.308Z,95994.47
2023-03-23T20:10:24.057Z,95990.34
2023-03-23T20:12:37.157Z,95988.44
2023-03-23T20:14:45.304Z,95988.31
2023-03-23T20:16:52.817Z,95988.31
2023-03-23T20:19:00.318Z,95984.44
2023-03-23T20:21:09.077Z,95981.38
2023-03-23T20:23:10.725Z,95983.97
2023-03-23T20:25:12.582Z,95975.84
2023-03-23T20:27:15.690Z,95982.00
2023-03-23T20:29:17.222Z,95977.81
2023-03-23T20:31:27.076Z,95973.16
2023-03-23T20:33:30.401Z,95975.28
2023-03-23T20:35:33.486Z,95970.75
2023-03-23T20:37:38.442Z,95967.53
2023-03-23T20:39:43.074Z,95971.13
2023-03-23T20:41:55.819Z,95965.78
2023-03-23T20:43:59.755Z,95956.50
2023-03-23T20:46:03.718Z,95953.69
2023-03-23T20:48:05.708Z,95953.88
2023-03-23T20:50:09.067Z,95952.25
2023-03-23T20:52:12.206Z,95944.03
2023-03-23T20:54:16.064Z,95946.56
2023-03-23T20:56:17.778Z,95954.25
2023-03-23T20:58:19.362Z,95953.03
2023-03-23T21:00:21.446Z,95949.75
2023-03-23T21:02:25.821Z,95947.72
2023-03-23T21:04:27.775Z,95944.78
2023-03-23T21:06:30.816Z,95938.63
2023-03-23T21:08:36.061Z,95939.00
2023-03-23T21:10:39.169Z,95942.41
2023-03-23T21:12:40.694Z,95945.44
2023-03-23T21:14:44.642Z,95941.34
2023-03-23T21:16:47.261Z,95941.13
2023-03-23T21:18:48.795Z,95936.78
2023-03-23T21:20:51.014Z,95939.50
2023-03-23T21:22:54.110Z,95936.59
2023-03-23T21:24:55.843Z,95932.34
2023-03-23T21:27:00.305Z,95930.81
2023-03-23T21:29:01.970Z,95921.50
2023-03-23T21:31:05.887Z,95919.78
2023-03-23T21:33:08.782Z,95917.75
2023-03-23T21:35:10.410Z,95907.59
2023-03-23T21:37:12.118Z,95904.38
2023-03-23T21:39:15.192Z,95898.75
2023-03-23T21:41:17.060Z,95902.09
2023-03-23T21:43:19.657Z,95897.53
2023-03-23T21:45:21.746Z,95887.06
2023-03-23T21:47:24.009Z,95894.28
2023-03-23T21:49:25.663Z,95882.41
2023-03-23T21:51:28.660Z,95889.84
2023-03-23T21:53:30.878Z,95887.94
2023-03-23T21:55:33.476Z,95882.09
2023-03-23T21:57:35.456Z,95880.88
2023-03-23T21:59:37.142Z,95879.69
2023-03-23T22:01:40.309Z,95878.34
2023-03-23T22:03:42.786Z,95877.06
2023-03-23T22:05:46.252Z,95875.22
2023-03-23T22:07:49.136Z,95875.72
2023-03-23T22:09:51.395Z,95868.97
2023-03-23T22:11:53.001Z,95864.69
2023-03-23T22:13:56.653Z,95858.78
2023-03-23T22:16:00.808Z,95864.72
2023-03-23T22:18:02.418Z,95858.88
2023-03-23T22:20:06.805Z,95860.06
2023-03-23T22:22:08.428Z,95855.50
2023-03-23T22:24:11.312Z,95858.59
2023-03-23T22:26:14.367Z,95863.75
2023-03-23T22:28:16.601Z,95851.00
2023-03-23T22:30:18.357Z,95849.94
2023-03-23T22:32:20.107Z,95853.78
2023-03-23T22:34:21.845Z,95849.09
2023-03-23T22:36:25.786Z,95850.75
2023-03-23T22:38:27.360Z,95851.50
2023-03-23T22:40:30.855Z,95846.41
2023-03-23T22:42:32.631Z,95836.53
2023-03-23T22:44:34.228Z,95849.31
2023-03-23T22:46:35.830Z,95840.75
2023-03-23T22:48:37.844Z,95838.63
2023-03-23T22:50:39.447Z,95844.91
2023-03-23T22:52:41.236Z,95844.31
2023-03-23T22:54:42.870Z,95842.81
2023-03-23T22:56:44.547Z,95849.16
2023-03-23T22:58:46.199Z,95847.50
2023-03-23T23:00:50.064Z,95846.34
2023-03-23T23:02:51.794Z,95839.66
2023-03-23T23:04:54.362Z,95844.56
2023-03-23T23:07:06.681Z,95844.53
2023-03-23T23:09:14.414Z,95844.59
2023-03-23T23:11:18.681Z,95847.34
2023-03-23T23:13:20.511Z,95838.78
2023-03-23T23:15:22.249Z,95841.81
2023-03-23T23:17:27.066Z,95844.97
2023-03-23T23:19:28.613Z,95838.50
2023-03-23T23:21:30.271Z,95839.13
2023-03-23T23:23:32.426Z,95836.47
2023-03-23T23:25:34.392Z,95840.84
2023-03-23T23:27:36.319Z,95839.94
2023-03-23T23:29:38.796Z,95829.03
2023-03-23T23:31:40.393Z,95826.75
2023-03-23T23:33:41.965Z,95829.03
2023-03-23T23:35:43.630Z,95836.22
2023-03-23T23:37:45.921Z,95835.66
2023-03-23T23:39:47.794Z,95844.22
2023-03-23T23:41:49.456Z,95840.56
2023-03-23T23:43:51.226Z,95838.69
2023-03-23T23:45:52.978Z,95834.44
2023-03-23T23:47:55.276Z,95831.72
2023-03-23T23:49:56.886Z,95834.31
2023-03-23T23:51:58.629Z,95823.91
2023-03-23T23:54:01.656Z,95825.41
2023-03-23T23:56:04.378Z,95817.16
2023-03-23T23:58:06.168Z,95807.88
